sensor_id;sensor_type;location;lat;lon;timestamp;P1;durP1;ratioP1;P2;durP2;ratioP2
28724;SDS011;43472;48.980;9.646;2023-03-04T00:02:08;55.13;;;26.52;;
28724;SDS011;43472;48.980;9.646;2023-03-04T00:07:10;58.08;;;26.35;;
28724;SDS011;43472;48.980;9.646;2023-03-04T00:12:16;42.63;;;22.60;;
28724;SDS011;43472;48.980;9.646;2023-03-04T00:17:19;40.65;;;20.83;;
28724;SDS011;43472;48.980;9.646;2023-03-04T00:22:20;52.90;;;21.83;;
28724;SDS011;43472;48.980;9.646;2023-03-04T00:27:22;43.28;;;21.45;;
28724;SDS011;43472;48.980;9.646;2023-03-04T00:32:24;44.08;;;21.70;;
28724;SDS011;43472;48.980;9.646;2023-03-04T00:37:26;46.13;;;22.05;;
28724;SDS011;43472;48.980;9.646;2023-03-04T00:42:28;46.65;;;23.38;;
28724;SDS011;43472;48.980;9.646;2023-03-04T00:47:30;44.63;;;21.90;;
28724;SDS011;43472;48.980;9.646;2023-03-04T00:52:32;38.83;;;20.15;;
28724;SDS011;43472;48.980;9.646;2023-03-04T00:57:34;46.20;;;22.23;;
28724;SDS011;43472;48.980;9.646;2023-03-04T01:02:36;41.35;;;20.75;;
28724;SDS011;43472;48.980;9.646;2023-03-04T01:07:38;46.00;;;22.27;;
28724;SDS011;43472;48.980;9.646;2023-03-04T01:12:40;50.65;;;22.13;;
28724;SDS011;43472;48.980;9.646;2023-03-04T01:17:43;44.95;;;22.73;;
28724;SDS011;43472;48.980;9.646;2023-03-04T01:22:46;42.67;;;21.73;;
28724;SDS011;43472;48.980;9.646;2023-03-04T01:27:48;45.00;;;21.67;;
28724;SDS011;43472;48.980;9.646;2023-03-04T01:32:50;42.90;;;20.73;;
28724;SDS011;43472;48.980;9.646;2023-03-04T01:37:52;45.22;;;20.90;;
28724;SDS011;43472;48.980;9.646;2023-03-04T01:42:54;43.42;;;21.73;;
28724;SDS011;43472;48.980;9.646;2023-03-04T01:47:56;44.13;;;20.15;;
28724;SDS011;43472;48.980;9.646;2023-03-04T01:52:58;43.00;;;21.17;;
28724;SDS011;43472;48.980;9.646;2023-03-04T01:58:01;39.65;;;20.10;;
28724;SDS011;43472;48.980;9.646;2023-03-04T02:03:07;44.50;;;21.65;;
28724;SDS011;43472;48.980;9.646;2023-03-04T02:08:12;39.65;;;20.48;;
28724;SDS011;43472;48.980;9.646;2023-03-04T02:13:15;44.10;;;19.08;;
28724;SDS011;43472;48.980;9.646;2023-03-04T02:18:22;43.97;;;19.60;;
28724;SDS011;43472;48.980;9.646;2023-03-04T02:23:42;39.47;;;19.38;;
28724;SDS011;43472;48.980;9.646;2023-03-04T02:29:06;44.15;;;20.30;;
28724;SDS011;43472;48.980;9.646;2023-03-04T02:34:12;41.83;;;20.40;;
28724;SDS011;43472;48.980;9.646;2023-03-04T02:44:36;41.40;;;20.35;;
28724;SDS011;43472;48.980;9.646;2023-03-04T02:49:43;43.00;;;20.73;;
28724;SDS011;43472;48.980;9.646;2023-03-04T02:54:46;48.78;;;20.50;;
28724;SDS011;43472;48.980;9.646;2023-03-04T02:59:48;36.75;;;18.77;;
28724;SDS011;43472;48.980;9.646;2023-03-04T03:04:50;32.70;;;16.65;;
28724;SDS011;43472;48.980;9.646;2023-03-04T03:09:52;30.35;;;14.55;;
28724;SDS011;43472;48.980;9.646;2023-03-04T03:14:54;40.83;;;16.55;;
28724;SDS011;43472;48.980;9.646;2023-03-04T03:19:56;33.92;;;16.90;;
28724;SDS011;43472;48.980;9.646;2023-03-04T03:24:58;33.05;;;15.95;;
28724;SDS011;43472;48.980;9.646;2023-03-04T03:29:59;29.85;;;14.32;;
28724;SDS011;43472;48.980;9.646;2023-03-04T03:35:02;42.50;;;17.13;;
28724;SDS011;43472;48.980;9.646;2023-03-04T03:40:04;32.90;;;15.45;;
28724;SDS011;43472;48.980;9.646;2023-03-04T03:45:06;35.42;;;14.15;;
28724;SDS011;43472;48.980;9.646;2023-03-04T03:50:08;28.23;;;15.07;;
28724;SDS011;43472;48.980;9.646;2023-03-04T03:55:11;38.15;;;14.90;;
28724;SDS011;43472;48.980;9.646;2023-03-04T04:00:13;34.88;;;15.70;;
28724;SDS011;43472;48.980;9.646;2023-03-04T04:05:16;36.25;;;15.50;;
28724;SDS011;43472;48.980;9.646;2023-03-04T04:10:18;36.20;;;16.33;;
28724;SDS011;43472;48.980;9.646;2023-03-04T04:15:21;36.88;;;15.48;;
28724;SDS011;43472;48.980;9.646;2023-03-04T04:20:23;34.72;;;16.85;;
28724;SDS011;43472;48.980;9.646;2023-03-04T04:25:26;39.33;;;17.83;;
28724;SDS011;43472;48.980;9.646;2023-03-04T04:30:28;36.08;;;16.98;;
28724;SDS011;43472;48.980;9.646;2023-03-04T04:35:32;34.38;;;15.45;;
28724;SDS011;43472;48.980;9.646;2023-03-04T04:40:36;35.47;;;16.75;;
28724;SDS011;43472;48.980;9.646;2023-03-04T04:45:38;33.78;;;16.27;;
28724;SDS011;43472;48.980;9.646;2023-03-04T04:50:40;32.70;;;14.32;;
28724;SDS011;43472;48.980;9.646;2023-03-04T04:55:42;29.33;;;14.00;;
28724;SDS011;43472;48.980;9.646;2023-03-04T05:00:44;32.28;;;15.00;;
28724;SDS011;43472;48.980;9.646;2023-03-04T05:05:46;34.13;;;15.82;;
28724;SDS011;43472;48.980;9.646;2023-03-04T05:10:49;34.03;;;16.13;;
28724;SDS011;43472;48.980;9.646;2023-03-04T05:15:52;27.65;;;13.55;;
28724;SDS011;43472;48.980;9.646;2023-03-04T05:20:56;31.05;;;14.73;;
28724;SDS011;43472;48.980;9.646;2023-03-04T05:26:00;33.63;;;13.93;;
28724;SDS011;43472;48.980;9.646;2023-03-04T05:31:03;39.40;;;18.15;;
28724;SDS011;43472;48.980;9.646;2023-03-04T05:36:05;34.78;;;15.98;;
28724;SDS011;43472;48.980;9.646;2023-03-04T05:41:08;38.65;;;17.52;;
28724;SDS011;43472;48.980;9.646;2023-03-04T05:46:13;35.35;;;16.92;;
28724;SDS011;43472;48.980;9.646;2023-03-04T05:51:16;41.15;;;18.08;;
28724;SDS011;43472;48.980;9.646;2023-03-04T05:56:19;52.22;;;24.67;;
28724;SDS011;43472;48.980;9.646;2023-03-04T06:01:23;56.17;;;25.38;;
28724;SDS011;43472;48.980;9.646;2023-03-04T06:06:25;53.03;;;22.00;;
28724;SDS011;43472;48.980;9.646;2023-03-04T06:11:27;40.25;;;19.75;;
28724;SDS011;43472;48.980;9.646;2023-03-04T06:16:29;43.60;;;17.80;;
28724;SDS011;43472;48.980;9.646;2023-03-04T06:21:32;38.35;;;17.63;;
28724;SDS011;43472;48.980;9.646;2023-03-04T06:26:34;56.65;;;23.08;;
28724;SDS011;43472;48.980;9.646;2023-03-04T06:31:35;65.53;;;27.92;;
28724;SDS011;43472;48.980;9.646;2023-03-04T06:36:37;59.70;;;25.65;;
28724;SDS011;43472;48.980;9.646;2023-03-04T06:41:39;53.58;;;24.58;;
28724;SDS011;43472;48.980;9.646;2023-03-04T06:46:41;50.30;;;23.85;;
28724;SDS011;43472;48.980;9.646;2023-03-04T06:51:43;45.03;;;21.90;;
28724;SDS011;43472;48.980;9.646;2023-03-04T06:56:45;46.65;;;20.45;;
28724;SDS011;43472;48.980;9.646;2023-03-04T07:01:47;50.55;;;24.77;;
28724;SDS011;43472;48.980;9.646;2023-03-04T07:06:49;48.90;;;23.60;;
28724;SDS011;43472;48.980;9.646;2023-03-04T07:11:51;51.88;;;23.67;;
28724;SDS011;43472;48.980;9.646;2023-03-04T07:16:53;47.67;;;22.35;;
28724;SDS011;43472;48.980;9.646;2023-03-04T07:21:55;40.63;;;20.15;;
28724;SDS011;43472;48.980;9.646;2023-03-04T07:26:57;45.22;;;20.20;;
28724;SDS011;43472;48.980;9.646;2023-03-04T07:31:59;41.13;;;20.90;;
28724;SDS011;43472;48.980;9.646;2023-03-04T07:37:01;42.30;;;20.55;;
28724;SDS011;43472;48.980;9.646;2023-03-04T07:42:04;56.83;;;23.15;;
28724;SDS011;43472;48.980;9.646;2023-03-04T07:47:06;40.05;;;19.00;;
28724;SDS011;43472;48.980;9.646;2023-03-04T07:52:07;35.38;;;17.60;;
28724;SDS011;43472;48.980;9.646;2023-03-04T07:57:11;34.20;;;17.10;;
28724;SDS011;43472;48.980;9.646;2023-03-04T08:02:13;39.83;;;16.83;;
28724;SDS011;43472;48.980;9.646;2023-03-04T08:07:16;31.30;;;16.23;;
28724;SDS011;43472;48.980;9.646;2023-03-04T08:12:17;27.38;;;15.15;;
28724;SDS011;43472;48.980;9.646;2023-03-04T08:17:19;34.38;;;15.38;;
28724;SDS011;43472;48.980;9.646;2023-03-04T08:22:22;30.08;;;15.93;;
28724;SDS011;43472;48.980;9.646;2023-03-04T08:27:24;27.23;;;13.88;;
28724;SDS011;43472;48.980;9.646;2023-03-04T08:32:26;27.35;;;14.25;;
28724;SDS011;43472;48.980;9.646;2023-03-04T08:37:28;24.25;;;13.55;;
28724;SDS011;43472;48.980;9.646;2023-03-04T08:42:30;28.15;;;14.40;;
28724;SDS011;43472;48.980;9.646;2023-03-04T08:47:32;30.58;;;13.40;;
28724;SDS011;43472;48.980;9.646;2023-03-04T08:52:34;26.02;;;14.52;;
28724;SDS011;43472;48.980;9.646;2023-03-04T08:57:36;34.20;;;15.50;;
28724;SDS011;43472;48.980;9.646;2023-03-04T09:02:38;28.50;;;15.02;;
28724;SDS011;43472;48.980;9.646;2023-03-04T09:07:40;36.85;;;14.60;;
28724;SDS011;43472;48.980;9.646;2023-03-04T09:12:42;27.17;;;13.98;;
28724;SDS011;43472;48.980;9.646;2023-03-04T09:17:44;29.00;;;15.85;;
28724;SDS011;43472;48.980;9.646;2023-03-04T09:22:46;30.17;;;15.68;;
28724;SDS011;43472;48.980;9.646;2023-03-04T09:38:01;34.25;;;15.73;;
28724;SDS011;43472;48.980;9.646;2023-03-04T09:43:04;36.65;;;17.52;;
28724;SDS011;43472;48.980;9.646;2023-03-04T09:48:12;31.50;;;14.63;;
28724;SDS011;43472;48.980;9.646;2023-03-04T09:53:22;27.58;;;14.40;;
28724;SDS011;43472;48.980;9.646;2023-03-04T09:58:42;30.35;;;14.95;;
28724;SDS011;43472;48.980;9.646;2023-03-04T10:09:21;28.88;;;15.05;;
28724;SDS011;43472;48.980;9.646;2023-03-04T10:14:39;26.95;;;13.43;;
28724;SDS011;43472;48.980;9.646;2023-03-04T10:19:52;26.65;;;15.15;;
28724;SDS011;43472;48.980;9.646;2023-03-04T10:25:24;42.58;;;21.40;;
28724;SDS011;43472;48.980;9.646;2023-03-04T10:30:51;36.15;;;16.50;;
28724;SDS011;43472;48.980;9.646;2023-03-04T10:41:29;28.13;;;15.27;;
28724;SDS011;43472;48.980;9.646;2023-03-04T10:46:32;32.25;;;16.13;;
28724;SDS011;43472;48.980;9.646;2023-03-04T10:51:45;35.78;;;16.88;;
28724;SDS011;43472;48.980;9.646;2023-03-04T10:57:12;26.58;;;13.90;;
28724;SDS011;43472;48.980;9.646;2023-03-04T11:07:28;33.55;;;16.20;;
28724;SDS011;43472;48.980;9.646;2023-03-04T11:12:33;31.77;;;17.15;;
28724;SDS011;43472;48.980;9.646;2023-03-04T11:17:49;29.58;;;16.25;;
28724;SDS011;43472;48.980;9.646;2023-03-04T11:22:54;26.58;;;15.93;;
28724;SDS011;43472;48.980;9.646;2023-03-04T11:28:02;34.03;;;17.48;;
28724;SDS011;43472;48.980;9.646;2023-03-04T11:38:46;30.30;;;17.75;;
28724;SDS011;43472;48.980;9.646;2023-03-04T11:43:50;31.73;;;17.77;;
28724;SDS011;43472;48.980;9.646;2023-03-04T11:48:57;33.55;;;18.42;;
28724;SDS011;43472;48.980;9.646;2023-03-04T11:59:20;34.63;;;18.80;;
28724;SDS011;43472;48.980;9.646;2023-03-04T12:09:39;31.70;;;16.17;;
28724;SDS011;43472;48.980;9.646;2023-03-04T12:25:38;31.42;;;17.83;;
28724;SDS011;43472;48.980;9.646;2023-03-04T12:30:59;31.92;;;16.15;;
28724;SDS011;43472;48.980;9.646;2023-03-04T12:36:13;34.33;;;17.58;;
28724;SDS011;43472;48.980;9.646;2023-03-04T12:57:32;27.73;;;16.60;;
28724;SDS011;43472;48.980;9.646;2023-03-04T13:02:45;37.05;;;17.48;;
28724;SDS011;43472;48.980;9.646;2023-03-04T13:18:35;29.42;;;16.55;;
28724;SDS011;43472;48.980;9.646;2023-03-04T13:23:43;31.25;;;17.23;;
28724;SDS011;43472;48.980;9.646;2023-03-04T13:34:40;33.95;;;17.02;;
28724;SDS011;43472;48.980;9.646;2023-03-04T13:40:22;30.45;;;16.92;;
28724;SDS011;43472;48.980;9.646;2023-03-04T13:45:36;29.52;;;16.73;;
28724;SDS011;43472;48.980;9.646;2023-03-04T13:50:40;32.72;;;17.83;;
28724;SDS011;43472;48.980;9.646;2023-03-04T13:56:00;32.25;;;19.05;;
28724;SDS011;43472;48.980;9.646;2023-03-04T14:01:23;28.40;;;16.33;;
28724;SDS011;43472;48.980;9.646;2023-03-04T14:06:29;36.20;;;21.13;;
28724;SDS011;43472;48.980;9.646;2023-03-04T14:11:33;31.67;;;17.75;;
28724;SDS011;43472;48.980;9.646;2023-03-04T14:16:46;35.30;;;18.77;;
28724;SDS011;43472;48.980;9.646;2023-03-04T14:21:55;31.77;;;17.75;;
28724;SDS011;43472;48.980;9.646;2023-03-04T14:27:11;35.53;;;19.50;;
28724;SDS011;43472;48.980;9.646;2023-03-04T14:32:14;38.53;;;19.05;;
28724;SDS011;43472;48.980;9.646;2023-03-04T14:37:25;34.63;;;18.15;;
28724;SDS011;43472;48.980;9.646;2023-03-04T14:42:36;36.08;;;20.20;;
28724;SDS011;43472;48.980;9.646;2023-03-04T14:47:42;39.25;;;19.38;;
28724;SDS011;43472;48.980;9.646;2023-03-04T14:52:48;40.20;;;19.20;;
28724;SDS011;43472;48.980;9.646;2023-03-04T14:58:05;37.22;;;20.10;;
28724;SDS011;43472;48.980;9.646;2023-03-04T15:03:18;35.35;;;19.45;;
28724;SDS011;43472;48.980;9.646;2023-03-04T15:08:29;38.78;;;20.35;;
28724;SDS011;43472;48.980;9.646;2023-03-04T15:13:37;37.70;;;20.03;;
28724;SDS011;43472;48.980;9.646;2023-03-04T15:19:02;33.85;;;19.13;;
28724;SDS011;43472;48.980;9.646;2023-03-04T15:24:08;37.05;;;18.77;;
28724;SDS011;43472;48.980;9.646;2023-03-04T15:29:12;33.08;;;18.55;;
28724;SDS011;43472;48.980;9.646;2023-03-04T15:34:16;33.88;;;18.52;;
28724;SDS011;43472;48.980;9.646;2023-03-04T15:39:20;34.78;;;19.80;;
28724;SDS011;43472;48.980;9.646;2023-03-04T15:44:23;35.22;;;19.77;;
28724;SDS011;43472;48.980;9.646;2023-03-04T15:49:25;38.95;;;20.02;;
28724;SDS011;43472;48.980;9.646;2023-03-04T15:54:27;34.70;;;19.63;;
28724;SDS011;43472;48.980;9.646;2023-03-04T15:59:29;32.53;;;17.48;;
28724;SDS011;43472;48.980;9.646;2023-03-04T16:04:31;32.03;;;17.63;;
28724;SDS011;43472;48.980;9.646;2023-03-04T16:09:34;35.47;;;19.15;;
28724;SDS011;43472;48.980;9.646;2023-03-04T16:14:37;39.00;;;20.48;;
28724;SDS011;43472;48.980;9.646;2023-03-04T16:19:39;39.30;;;19.02;;
28724;SDS011;43472;48.980;9.646;2023-03-04T16:24:41;84.20;;;32.25;;
28724;SDS011;43472;48.980;9.646;2023-03-04T16:29:43;111.65;;;38.85;;
28724;SDS011;43472;48.980;9.646;2023-03-04T16:34:48;192.48;;;58.22;;
28724;SDS011;43472;48.980;9.646;2023-03-04T16:39:51;46.25;;;22.83;;
28724;SDS011;43472;48.980;9.646;2023-03-04T16:44:53;44.83;;;25.45;;
28724;SDS011;43472;48.980;9.646;2023-03-04T16:49:56;93.10;;;33.80;;
28724;SDS011;43472;48.980;9.646;2023-03-04T16:55:01;56.63;;;23.23;;
28724;SDS011;43472;48.980;9.646;2023-03-04T17:00:04;108.25;;;40.22;;
28724;SDS011;43472;48.980;9.646;2023-03-04T17:05:27;53.13;;;24.92;;
28724;SDS011;43472;48.980;9.646;2023-03-04T17:10:31;39.50;;;20.75;;
28724;SDS011;43472;48.980;9.646;2023-03-04T17:15:33;53.30;;;28.02;;
28724;SDS011;43472;48.980;9.646;2023-03-04T17:20:36;50.17;;;23.08;;
28724;SDS011;43472;48.980;9.646;2023-03-04T17:25:38;42.30;;;19.77;;
28724;SDS011;43472;48.980;9.646;2023-03-04T17:30:42;42.55;;;21.27;;
28724;SDS011;43472;48.980;9.646;2023-03-04T17:35:44;38.95;;;19.88;;
28724;SDS011;43472;48.980;9.646;2023-03-04T17:40:47;55.60;;;22.30;;
28724;SDS011;43472;48.980;9.646;2023-03-04T17:45:50;42.88;;;21.67;;
28724;SDS011;43472;48.980;9.646;2023-03-04T17:50:52;39.70;;;21.95;;
28724;SDS011;43472;48.980;9.646;2023-03-04T17:55:57;38.85;;;20.65;;
28724;SDS011;43472;48.980;9.646;2023-03-04T18:01:02;38.17;;;20.13;;
28724;SDS011;43472;48.980;9.646;2023-03-04T18:06:14;38.78;;;18.63;;
28724;SDS011;43472;48.980;9.646;2023-03-04T18:11:21;40.45;;;19.88;;
28724;SDS011;43472;48.980;9.646;2023-03-04T18:16:24;35.17;;;19.17;;
28724;SDS011;43472;48.980;9.646;2023-03-04T18:21:29;42.00;;;20.15;;
28724;SDS011;43472;48.980;9.646;2023-03-04T18:26:31;44.67;;;21.45;;
28724;SDS011;43472;48.980;9.646;2023-03-04T18:31:34;41.30;;;21.05;;
28724;SDS011;43472;48.980;9.646;2023-03-04T18:36:37;33.78;;;18.75;;
28724;SDS011;43472;48.980;9.646;2023-03-04T18:41:39;37.60;;;20.23;;
28724;SDS011;43472;48.980;9.646;2023-03-04T18:46:42;44.55;;;23.98;;
28724;SDS011;43472;48.980;9.646;2023-03-04T18:51:47;41.08;;;22.00;;
28724;SDS011;43472;48.980;9.646;2023-03-04T18:56:50;35.83;;;19.70;;
28724;SDS011;43472;48.980;9.646;2023-03-04T19:01:58;38.10;;;19.83;;
28724;SDS011;43472;48.980;9.646;2023-03-04T19:07:04;36.55;;;20.27;;
28724;SDS011;43472;48.980;9.646;2023-03-04T19:12:06;37.83;;;20.42;;
28724;SDS011;43472;48.980;9.646;2023-03-04T19:17:08;39.50;;;21.30;;
28724;SDS011;43472;48.980;9.646;2023-03-04T19:22:11;42.58;;;20.80;;
28724;SDS011;43472;48.980;9.646;2023-03-04T19:27:13;46.38;;;21.27;;
28724;SDS011;43472;48.980;9.646;2023-03-04T19:32:15;44.15;;;21.38;;
28724;SDS011;43472;48.980;9.646;2023-03-04T19:37:17;42.53;;;22.23;;
28724;SDS011;43472;48.980;9.646;2023-03-04T19:42:19;40.45;;;19.17;;
28724;SDS011;43472;48.980;9.646;2023-03-04T19:47:22;43.05;;;22.20;;
28724;SDS011;43472;48.980;9.646;2023-03-04T19:52:24;43.17;;;21.25;;
28724;SDS011;43472;48.980;9.646;2023-03-04T19:57:26;38.15;;;19.35;;
28724;SDS011;43472;48.980;9.646;2023-03-04T20:02:28;48.40;;;21.73;;
28724;SDS011;43472;48.980;9.646;2023-03-04T20:07:31;32.92;;;19.35;;
28724;SDS011;43472;48.980;9.646;2023-03-04T20:12:33;43.60;;;21.65;;
28724;SDS011;43472;48.980;9.646;2023-03-04T20:17:37;37.00;;;21.42;;
28724;SDS011;43472;48.980;9.646;2023-03-04T20:22:39;39.63;;;22.08;;
28724;SDS011;43472;48.980;9.646;2023-03-04T20:27:41;41.38;;;20.13;;
28724;SDS011;43472;48.980;9.646;2023-03-04T20:32:43;44.50;;;21.15;;
28724;SDS011;43472;48.980;9.646;2023-03-04T20:37:45;44.70;;;20.88;;
28724;SDS011;43472;48.980;9.646;2023-03-04T20:42:47;48.17;;;23.35;;
28724;SDS011;43472;48.980;9.646;2023-03-04T20:47:49;47.60;;;24.10;;
28724;SDS011;43472;48.980;9.646;2023-03-04T20:52:51;41.95;;;21.33;;
28724;SDS011;43472;48.980;9.646;2023-03-04T20:57:53;45.28;;;21.63;;
28724;SDS011;43472;48.980;9.646;2023-03-04T21:02:55;52.08;;;22.08;;
28724;SDS011;43472;48.980;9.646;2023-03-04T21:07:57;47.22;;;21.95;;
28724;SDS011;43472;48.980;9.646;2023-03-04T21:13:00;51.00;;;24.88;;
28724;SDS011;43472;48.980;9.646;2023-03-04T21:18:02;65.70;;;31.38;;
28724;SDS011;43472;48.980;9.646;2023-03-04T21:23:04;50.63;;;24.48;;
28724;SDS011;43472;48.980;9.646;2023-03-04T21:28:06;46.42;;;23.83;;
28724;SDS011;43472;48.980;9.646;2023-03-04T21:33:12;48.80;;;22.15;;
28724;SDS011;43472;48.980;9.646;2023-03-04T21:38:19;50.30;;;22.92;;
28724;SDS011;43472;48.980;9.646;2023-03-04T21:43:22;47.58;;;21.40;;
28724;SDS011;43472;48.980;9.646;2023-03-04T21:48:24;49.35;;;21.50;;
28724;SDS011;43472;48.980;9.646;2023-03-04T21:53:27;44.83;;;21.35;;
28724;SDS011;43472;48.980;9.646;2023-03-04T21:58:30;45.05;;;20.75;;
28724;SDS011;43472;48.980;9.646;2023-03-04T22:03:35;56.47;;;25.88;;
28724;SDS011;43472;48.980;9.646;2023-03-04T22:08:38;57.42;;;23.38;;
28724;SDS011;43472;48.980;9.646;2023-03-04T22:13:40;52.80;;;23.25;;
28724;SDS011;43472;48.980;9.646;2023-03-04T22:18:42;44.00;;;21.25;;
28724;SDS011;43472;48.980;9.646;2023-03-04T22:23:44;47.38;;;23.25;;
28724;SDS011;43472;48.980;9.646;2023-03-04T22:28:46;49.25;;;23.90;;
28724;SDS011;43472;48.980;9.646;2023-03-04T22:33:49;50.08;;;23.30;;
28724;SDS011;43472;48.980;9.646;2023-03-04T22:38:50;52.17;;;22.83;;
28724;SDS011;43472;48.980;9.646;2023-03-04T22:43:53;49.28;;;22.90;;
28724;SDS011;43472;48.980;9.646;2023-03-04T22:48:56;50.90;;;22.85;;
28724;SDS011;43472;48.980;9.646;2023-03-04T22:53:59;46.35;;;23.75;;
28724;SDS011;43472;48.980;9.646;2023-03-04T22:59:01;50.92;;;24.38;;
28724;SDS011;43472;48.980;9.646;2023-03-04T23:04:04;50.33;;;24.52;;
28724;SDS011;43472;48.980;9.646;2023-03-04T23:09:06;51.42;;;23.92;;
28724;SDS011;43472;48.980;9.646;2023-03-04T23:14:08;50.33;;;24.42;;
28724;SDS011;43472;48.980;9.646;2023-03-04T23:19:13;50.72;;;23.83;;
28724;SDS011;43472;48.980;9.646;2023-03-04T23:24:17;54.65;;;25.80;;
28724;SDS011;43472;48.980;9.646;2023-03-04T23:29:20;50.28;;;24.58;;
28724;SDS011;43472;48.980;9.646;2023-03-04T23:34:22;53.13;;;24.83;;
28724;SDS011;43472;48.980;9.646;2023-03-04T23:39:24;58.42;;;25.98;;
28724;SDS011;43472;48.980;9.646;2023-03-04T23:44:26;57.97;;;24.25;;
28724;SDS011;43472;48.980;9.646;2023-03-04T23:49:28;47.05;;;23.73;;
28724;SDS011;43472;48.980;9.646;2023-03-04T23:54:31;59.28;;;25.60;;
28724;SDS011;43472;48.980;9.646;2023-03-04T23:59:33;53.40;;;25.67;;
